Time;durP1;ratioP1;P1;durP2;ratioP2;P2;SDS_P1;SDS_P2;PMS_P1;PMS_P2;Temp;Humidity;BMP_temperature;BMP_pressure;BME280_temperature;BME280_humidity;BME280_pressure;Samples;Min_cycle;Max_cycle;Signal;HPM_P1;HPM_P2
2021/12/21 00:01:16;;;;;;;;;;;;;;;3.09;50.75;99950.72;5047482;28;19924;-85
2021/12/21 00:03:42;;;;;;;;;;;;;;;3.12;50.04;99951.66;5046280;28;19961;-85
2021/12/21 00:06:07;;;;;;;;;;;;;;;3.11;50.64;99965.53;5027748;28;19924;-85
2021/12/21 00:08:32;;;;;;;;;;;;;;;3.14;50.53;99960.41;5025713;28;19913;-86
2021/12/21 00:10:59;;;;;;;;;;;;;;;3.08;50.46;99955.06;5027821;28;19917;-86
2021/12/21 00:16:13;;;;;;;;;;;;;;;3.04;49.66;99963.66;5026889;28;20019;-87
2021/12/21 00:18:46;;;;;;;;;;;;;;;3.09;50.50;99964.66;5026182;28;20007;-86
2021/12/21 00:23:59;;;;;;;;;;;;;;;2.92;50.99;99966.00;5027543;28;19944;-87
2021/12/21 00:26:25;;;;;;;;;;;;;;;2.56;51.43;99960.06;5025611;28;19917;-85
2021/12/21 00:28:56;;;;;;;;;;;;;;;2.55;51.92;99968.75;5026853;28;19913;-86
2021/12/21 00:31:23;;;;;;;;;;;;;;;2.54;51.56;99976.53;5025740;28;19986;-86
2021/12/21 00:33:48;;;;;;;;;;;;;;;2.46;52.00;99971.16;5026820;28;20415;-85
2021/12/21 00:36:15;;;;;;;;;;;;;;;2.35;51.70;99978.72;5026100;28;19951;-84
2021/12/21 00:38:41;;;;;;;;;;;;;;;2.38;51.94;99978.78;5026202;28;19917;-86
2021/12/21 00:41:06;;;;;;;;;;;;;;;2.55;51.70;99973.97;5026321;28;19921;-86
2021/12/21 00:43:32;;;;;;;;;;;;;;;2.44;51.46;99985.84;5025759;28;19928;-86
2021/12/21 00:45:57;;;;;;;;;;;;;;;2.50;51.73;99992.09;5025074;28;19921;-86
2021/12/21 00:48:28;;;;;;;;;;;;;;;2.46;51.81;99991.97;5027323;28;19920;-86
2021/12/21 00:50:53;;;;;;;;;;;;;;;2.39;52.17;99997.88;5025514;28;19936;-87
2021/12/21 00:53:19;;;;;;;;;;;;;;;2.37;51.87;100002.19;5029712;28;19976;-87
2021/12/21 00:55:44;;;;;;;;;;;;;;;2.41;51.88;100006.59;5027258;28;19956;-87
2021/12/21 00:58:09;;;;;;;;;;;;;;;2.48;51.80;100004.16;5026347;28;20433;-87
2021/12/21 01:00:35;;;;;;;;;;;;;;;2.53;51.26;100006.88;5026274;28;19967;-87
2021/12/21 01:03:08;;;;;;;;;;;;;;;2.45;51.69;100009.31;5030847;28;19925;-87
2021/12/21 01:05:49;;;;;;;;;;;;;;;2.46;50.92;100008.47;5045872;28;20393;-87
2021/12/21 01:08:20;;;;;;;;;;;;;;;2.43;51.55;100002.34;5046486;28;20465;-86
2021/12/21 01:13:29;;;;;;;;;;;;;;;2.49;51.22;100000.72;5026448;28;19921;-86
2021/12/21 01:16:05;;;;;;;;;;;;;;;2.76;50.59;99993.50;5025550;28;19967;-86
2021/12/21 01:18:39;;;;;;;;;;;;;;;2.62;50.10;99996.66;5059786;28;19917;-86
2021/12/21 01:21:16;;;;;;;;;;;;;;;2.54;49.95;100003.44;5026851;28;19917;-86
2021/12/21 01:27:25;;;;;;;;;;;;;;;2.42;50.84;100001.44;5040295;28;20108;-87
2021/12/21 01:37:04;;;;;;;;;;;;;;;2.37;51.12;100003.06;5026400;28;19913;-85
2021/12/21 01:39:54;;;;;;;;;;;;;;;2.35;50.79;100006.47;5027367;28;19924;-86
2021/12/21 01:42:38;;;;;;;;;;;;;;;2.44;50.17;100007.56;5029468;28;20416;-86
2021/12/21 01:50:32;;;;;;;;;;;;;;;2.55;49.12;99996.50;5051341;28;19928;-85
2021/12/21 01:52:57;;;;;;;;;;;;;;;2.51;49.96;99999.03;5042583;28;19917;-85
2021/12/21 01:55:22;;;;;;;;;;;;;;;2.48;49.54;99998.09;5032094;28;19916;-85
2021/12/21 01:57:48;;;;;;;;;;;;;;;2.37;49.72;99995.25;5030699;28;19917;-85
2021/12/21 02:00:14;;;;;;;;;;;;;;;2.31;49.17;99995.97;5030689;28;20011;-85
2021/12/21 02:02:40;;;;;;;;;;;;;;;2.40;49.20;99991.84;5031555;28;19978;-86
2021/12/21 02:05:05;;;;;;;;;;;;;;;2.43;49.06;99992.78;5031653;28;20410;-84
2021/12/21 02:07:31;;;;;;;;;;;;;;;2.36;49.13;99992.59;5031070;28;20004;-85
2021/12/21 02:09:56;;;;;;;;;;;;;;;2.32;49.63;99991.66;5030179;28;19921;-86
2021/12/21 02:12:21;;;;;;;;;;;;;;;2.50;49.63;99988.59;5031104;28;20295;-85
2021/12/21 02:14:53;;;;;;;;;;;;;;;2.26;49.24;99991.53;5029903;28;19919;-86
2021/12/21 02:20:10;;;;;;;;;;;;;;;2.44;48.67;99991.94;5030265;28;19979;-86
2021/12/21 02:22:42;;;;;;;;;;;;;;;2.50;49.27;99999.00;5041126;28;19913;-85
2021/12/21 02:27:56;;;;;;;;;;;;;;;2.60;49.50;100002.72;5050837;28;20379;-86
2021/12/21 02:30:22;;;;;;;;;;;;;;;2.56;49.79;100008.69;5030847;28;19952;-86
2021/12/21 02:32:48;;;;;;;;;;;;;;;2.67;48.61;99994.16;5037000;28;19996;-86
2021/12/21 02:35:13;;;;;;;;;;;;;;;2.69;49.64;100002.91;5030118;28;19924;-86
2021/12/21 02:37:38;;;;;;;;;;;;;;;2.78;49.09;100003.13;5030109;28;20042;-86
2021/12/21 02:40:05;;;;;;;;;;;;;;;2.74;48.83;100003.00;5030190;28;19921;-86
2021/12/21 02:42:30;;;;;;;;;;;;;;;2.60;49.72;100006.19;5029656;28;20003;-85
2021/12/21 02:44:56;;;;;;;;;;;;;;;2.66;49.53;99993.28;5030264;28;20078;-86
2021/12/21 02:47:21;;;;;;;;;;;;;;;2.56;49.54;99993.94;5030049;28;19974;-86
2021/12/21 02:49:46;;;;;;;;;;;;;;;2.66;49.56;100000.25;5030219;28;20024;-85
2021/12/21 02:52:12;;;;;;;;;;;;;;;2.57;49.84;100011.31;5030972;28;19920;-84
2021/12/21 02:54:37;;;;;;;;;;;;;;;2.56;49.57;100008.69;5043106;28;19920;-85
2021/12/21 02:57:03;;;;;;;;;;;;;;;2.65;49.40;100009.75;5049057;28;20307;-84
2021/12/21 02:59:28;;;;;;;;;;;;;;;2.68;49.06;100011.56;5043601;28;19924;-85
2021/12/21 03:01:53;;;;;;;;;;;;;;;2.73;49.88;100003.84;5030105;28;19924;-86
2021/12/21 03:04:19;;;;;;;;;;;;;;;2.77;49.91;100026.53;5028942;28;19913;-85
2021/12/21 03:11:50;;;;;;;;;;;;;;;2.82;49.58;100011.88;5038148;28;19971;-84
2021/12/21 03:14:16;;;;;;;;;;;;;;;2.92;49.59;100025.94;5049436;28;20017;-85
2021/12/21 03:16:41;;;;;;;;;;;;;;;2.84;49.38;100013.66;5049746;28;19962;-86
2021/12/21 03:19:08;;;;;;;;;;;;;;;2.92;48.49;100021.66;5049409;28;19913;-85
2021/12/21 03:21:34;;;;;;;;;;;;;;;2.99;49.25;100014.81;5047745;28;19920;-85
2021/12/21 03:24:00;;;;;;;;;;;;;;;2.88;48.60;100017.22;5048987;28;19927;-84
2021/12/21 03:26:25;;;;;;;;;;;;;;;2.81;49.23;100017.91;5049622;28;19944;-83
2021/12/21 03:28:51;;;;;;;;;;;;;;;2.82;50.02;100007.53;5049413;28;20425;-85
2021/12/21 03:31:17;;;;;;;;;;;;;;;2.66;49.50;100021.09;5041514;28;20058;-85
2021/12/21 03:33:43;;;;;;;;;;;;;;;2.77;50.42;100011.75;5029220;28;20399;-86
2021/12/21 03:36:08;;;;;;;;;;;;;;;2.61;50.52;100020.97;5029339;28;19999;-86
2021/12/21 03:38:35;;;;;;;;;;;;;;;2.71;50.55;100009.03;5029095;28;19917;-85
2021/12/21 03:41:07;;;;;;;;;;;;;;;2.71;50.18;100015.97;5038543;28;19920;-85
2021/12/21 03:43:33;;;;;;;;;;;;;;;2.78;50.47;100026.56;5049260;28;19987;-86
2021/12/21 03:46:09;;;;;;;;;;;;;;;2.75;50.90;100036.00;5049644;28;19908;-86
2021/12/21 03:48:35;;;;;;;;;;;;;;;2.83;50.65;100037.09;5049178;28;19917;-85
2021/12/21 03:51:01;;;;;;;;;;;;;;;2.69;49.83;100031.56;5038912;28;19916;-86
2021/12/21 03:53:27;;;;;;;;;;;;;;;2.85;50.07;100031.03;5060949;28;19921;-85
2021/12/21 03:56:05;;;;;;;;;;;;;;;2.94;50.38;100038.19;5060226;28;19917;-86
2021/12/21 03:58:30;;;;;;;;;;;;;;;2.91;50.08;100035.50;5028447;28;20326;-85
2021/12/21 04:00:56;;;;;;;;;;;;;;;2.88;50.15;100053.69;5032723;28;19924;-86
2021/12/21 04:03:21;;;;;;;;;;;;;;;2.84;49.91;100055.34;5048578;28;19916;-86
2021/12/21 04:05:46;;;;;;;;;;;;;;;2.83;50.51;100050.97;5047521;28;20035;-86
2021/12/21 04:08:11;;;;;;;;;;;;;;;2.76;49.72;100059.50;5045355;28;19921;-87
2021/12/21 04:10:37;;;;;;;;;;;;;;;2.77;50.08;100063.00;5029376;28;19978;-85
2021/12/21 04:13:02;;;;;;;;;;;;;;;2.76;50.16;100051.69;5028345;28;19948;-83
2021/12/21 04:15:31;;;;;;;;;;;;;;;2.82;50.53;100056.16;5026995;28;19917;-84
2021/12/21 04:17:57;;;;;;;;;;;;;;;2.71;50.80;100066.34;5028713;28;20375;-87
2021/12/21 04:20:22;;;;;;;;;;;;;;;2.62;51.25;100064.38;5029795;28;20015;-85
2021/12/21 04:22:49;;;;;;;;;;;;;;;2.57;52.11;100063.41;5027694;28;19913;-85
2021/12/21 04:25:15;;;;;;;;;;;;;;;2.42;52.29;100065.66;5047279;28;19919;-87
2021/12/21 04:27:40;;;;;;;;;;;;;;;2.42;52.24;100073.47;5048197;28;19918;-86
2021/12/21 04:30:06;;;;;;;;;;;;;;;2.62;52.36;100073.94;5046959;28;19924;-85
2021/12/21 04:32:31;;;;;;;;;;;;;;;2.49;52.43;100076.25;5047810;28;19923;-87
2021/12/21 04:34:56;;;;;;;;;;;;;;;2.72;52.45;100080.22;5047471;28;19916;-87
2021/12/21 04:37:23;;;;;;;;;;;;;;;2.23;52.93;100087.78;5040870;28;19979;-87
2021/12/21 04:40:04;;;;;;;;;;;;;;;2.31;52.56;100089.69;5028107;28;19947;-86
2021/12/21 04:42:29;;;;;;;;;;;;;;;2.28;52.89;100093.97;5026577;28;19917;-87
2021/12/21 04:44:55;;;;;;;;;;;;;;;2.26;52.89;100093.94;5028019;28;19913;-86
2021/12/21 04:47:20;;;;;;;;;;;;;;;2.28;52.08;100089.63;5027261;28;20032;-86
2021/12/21 04:49:45;;;;;;;;;;;;;;;2.26;51.98;100096.53;5033884;28;19924;-86
2021/12/21 04:52:11;;;;;;;;;;;;;;;2.30;52.31;100100.97;5029149;28;19921;-87
2021/12/21 04:54:37;;;;;;;;;;;;;;;2.44;51.70;100101.31;5026404;28;19931;-86
2021/12/21 04:57:02;;;;;;;;;;;;;;;2.23;51.33;100109.47;5027566;28;19921;-85
2021/12/21 04:59:28;;;;;;;;;;;;;;;2.23;51.49;100103.41;5029943;28;19971;-87
2021/12/21 05:01:54;;;;;;;;;;;;;;;2.39;51.05;100110.72;5038493;28;19921;-86
2021/12/21 05:04:20;;;;;;;;;;;;;;;2.49;51.04;100114.47;5027919;28;19913;-86
2021/12/21 05:06:45;;;;;;;;;;;;;;;2.40;50.90;100120.31;5027004;28;19920;-87
2021/12/21 05:09:14;;;;;;;;;;;;;;;2.45;50.34;100118.69;5028431;28;19921;-88
2021/12/21 05:11:42;;;;;;;;;;;;;;;2.34;50.01;100120.16;5027755;28;20016;-87
2021/12/21 05:14:09;;;;;;;;;;;;;;;2.46;50.22;100133.47;5043859;28;19916;-87
2021/12/21 05:16:34;;;;;;;;;;;;;;;2.58;49.98;100132.91;5045405;28;19919;-86
2021/12/21 05:19:00;;;;;;;;;;;;;;;2.51;49.95;100138.81;5029611;28;20697;-86
2021/12/21 05:21:26;;;;;;;;;;;;;;;2.25;49.52;100096.50;5040899;28;20171;-87
2021/12/21 05:23:51;;;;;;;;;;;;;;;2.46;50.03;100141.28;5047054;28;19912;-87
2021/12/21 05:26:16;;;;;;;;;;;;;;;2.50;49.91;100142.25;5046740;28;19920;-87
2021/12/21 05:28:42;;;;;;;;;;;;;;;2.53;50.04;100144.91;5047397;28;20758;-87
2021/12/21 05:31:07;;;;;;;;;;;;;;;2.53;50.34;100154.47;5031592;28;20417;-88
2021/12/21 05:33:33;;;;;;;;;;;;;;;2.56;49.47;100154.53;5032182;28;19968;-87
2021/12/21 05:35:58;;;;;;;;;;;;;;;2.58;49.10;100161.56;5046506;28;19963;-88
2021/12/21 05:38:30;;;;;;;;;;;;;;;2.61;49.68;100161.63;5047029;28;19917;-88
2021/12/21 05:40:59;;;;;;;;;;;;;;;2.55;49.19;100163.19;5045215;28;19916;-87
2021/12/21 05:43:25;;;;;;;;;;;;;;;2.60;48.83;100170.28;5047807;28;20049;-93
2021/12/21 05:45:50;;;;;;;;;;;;;;;2.59;48.66;100175.47;5035201;28;19924;-85
2021/12/21 05:48:15;;;;;;;;;;;;;;;2.71;48.35;100174.88;5027432;28;19971;-84
2021/12/21 05:50:41;;;;;;;;;;;;;;;2.83;48.74;100183.00;5027191;28;19913;-86
2021/12/21 05:53:06;;;;;;;;;;;;;;;2.84;48.84;100187.34;5026991;28;20015;-85
2021/12/21 05:55:32;;;;;;;;;;;;;;;3.03;49.06;100186.94;5036088;28;20363;-85
2021/12/21 05:57:57;;;;;;;;;;;;;;;3.19;48.79;100193.38;5047128;28;20363;-86
2021/12/21 06:00:24;;;;;;;;;;;;;;;3.16;49.14;100192.44;5045587;28;19940;-86
2021/12/21 06:02:49;;;;;;;;;;;;;;;3.13;49.02;100181.94;5031556;28;19917;-88
2021/12/21 06:05:16;;;;;;;;;;;;;;;2.84;49.62;100185.66;5027046;28;20300;-89
2021/12/21 06:07:42;;;;;;;;;;;;;;;2.88;48.77;100185.72;5026994;28;20254;-87
2021/12/21 06:10:15;;;;;;;;;;;;;;;2.77;49.39;100183.72;5031903;28;20421;-87
2021/12/21 06:25:43;;;;;;;;;;;;;;;2.94;48.46;100206.72;5025530;28;19962;-87
2021/12/21 06:28:09;;;;;;;;;;;;;;;3.03;47.63;100215.63;5026729;28;19917;-87
2021/12/21 06:30:35;;;;;;;;;;;;;;;3.02;48.31;100223.41;5026839;28;19913;-86
2021/12/21 06:33:00;;;;;;;;;;;;;;;2.98;48.73;100217.25;5030104;28;19917;-87
2021/12/21 06:35:26;;;;;;;;;;;;;;;3.05;47.95;100224.34;5030099;28;19940;-87
2021/12/21 06:37:52;;;;;;;;;;;;;;;3.10;48.24;100226.19;5036516;28;19916;-85
2021/12/21 06:40:17;;;;;;;;;;;;;;;3.12;48.37;100225.41;5030247;28;19917;-84
2021/12/21 06:42:45;;;;;;;;;;;;;;;3.00;46.86;100228.59;5030418;28;20558;-86
2021/12/21 06:45:23;;;;;;;;;;;;;;;3.00;47.36;100233.78;5037536;28;19921;-85
2021/12/21 06:53:17;;;;;;;;;;;;;;;3.37;46.74;100245.09;5043532;28;19961;-86
2021/12/21 06:55:42;;;;;;;;;;;;;;;3.19;46.30;100247.28;5037402;28;20314;-85
2021/12/21 06:58:07;;;;;;;;;;;;;;;3.24;45.66;100240.44;5049537;28;20334;-86
2021/12/21 07:00:33;;;;;;;;;;;;;;;3.27;45.61;100250.06;5034204;28;20372;-88
2021/12/21 07:02:58;;;;;;;;;;;;;;;3.32;46.01;100241.50;5037621;28;19921;-86
2021/12/21 07:05:24;;;;;;;;;;;;;;;3.40;45.65;100242.56;5044020;28;19920;-85
2021/12/21 07:07:50;;;;;;;;;;;;;;;3.55;44.74;100239.41;5037365;28;19936;-86
2021/12/21 07:10:22;;;;;;;;;;;;;;;3.54;44.08;100248.09;5038860;28;20369;-88
2021/12/21 07:18:08;;;;;;;;;;;;;;;3.76;45.02;100249.41;5030276;28;20063;-85
2021/12/21 07:20:34;;;;;;;;;;;;;;;3.56;44.57;100245.50;5030702;28;19916;-87
2021/12/21 07:23:00;;;;;;;;;;;;;;;3.39;44.25;100253.81;5038818;28;20429;-86
2021/12/21 07:25:27;;;;;;;;;;;;;;;3.46;45.13;100253.97;5037477;28;20055;-86
2021/12/21 07:27:52;;;;;;;;;;;;;;;3.54;44.58;100252.44;5039511;28;19917;-86
2021/12/21 07:30:17;;;;;;;;;;;;;;;3.51;44.23;100260.19;5038423;28;20281;-86
2021/12/21 07:32:43;;;;;;;;;;;;;;;3.54;45.29;100263.75;5040901;28;20298;-87
2021/12/21 07:35:08;;;;;;;;;;;;;;;3.48;44.71;100267.94;5039420;28;19943;-86
2021/12/21 07:37:35;;;;;;;;;;;;;;;3.59;43.79;100269.94;5035669;28;19978;-87
2021/12/21 07:40:01;;;;;;;;;;;;;;;3.84;44.41;100274.81;5038092;28;19917;-87
2021/12/21 07:42:26;;;;;;;;;;;;;;;3.99;44.48;100267.31;5046027;28;20398;-88
2021/12/21 07:44:51;;;;;;;;;;;;;;;3.79;43.83;100277.31;5047415;28;20377;-87
2021/12/21 07:47:17;;;;;;;;;;;;;;;4.16;43.45;100282.47;5049009;28;19917;-86
2021/12/21 07:49:43;;;;;;;;;;;;;;;4.34;43.26;100289.75;5049088;28;20402;-88
2021/12/21 07:52:09;;;;;;;;;;;;;;;4.17;42.86;100279.88;5049125;28;20003;-86
2021/12/21 07:54:37;;;;;;;;;;;;;;;3.65;43.19;100282.25;5048879;28;19923;-87
2021/12/21 07:57:03;;;;;;;;;;;;;;;3.78;43.80;100300.78;5048374;28;20681;-86
2021/12/21 07:59:29;;;;;;;;;;;;;;;3.85;43.94;100311.38;5048369;28;19956;-86
2021/12/21 08:01:54;;;;;;;;;;;;;;;4.06;43.66;100311.00;5032783;28;19996;-86
2021/12/21 08:04:26;;;;;;;;;;;;;;;3.85;43.48;100315.75;5027954;28;19975;-86
2021/12/21 08:06:52;;;;;;;;;;;;;;;3.72;43.83;100318.06;5027622;28;19909;-85
2021/12/21 08:09:18;;;;;;;;;;;;;;;3.76;43.45;100316.41;5027779;28;19928;-86
2021/12/21 08:14:09;;;;;;;;;;;;;;;3.61;44.27;100321.28;5027356;28;19979;-89
2021/12/21 08:16:34;;;;;;;;;;;;;;;3.61;43.18;100316.94;5028567;28;20426;-86
2021/12/21 08:18:59;;;;;;;;;;;;;;;3.72;43.03;100325.00;5028390;28;19937;-86
2021/12/21 08:21:26;;;;;;;;;;;;;;;3.99;43.41;100324.75;5027277;28;19921;-85
2021/12/21 08:23:51;;;;;;;;;;;;;;;4.06;42.95;100324.03;5028279;28;20024;-87
2021/12/21 08:26:17;;;;;;;;;;;;;;;4.07;42.23;100327.53;5027864;28;20445;-86
2021/12/21 08:28:42;;;;;;;;;;;;;;;4.22;42.44;100332.19;5027111;28;19963;-87
2021/12/21 08:31:12;;;;;;;;;;;;;;;4.30;41.97;100330.63;5028634;28;19964;-86
2021/12/21 08:33:37;;;;;;;;;;;;;;;4.30;41.27;100334.09;5026844;28;19916;-87
2021/12/21 08:36:03;;;;;;;;;;;;;;;4.25;41.75;100335.75;5028505;28;20081;-87
2021/12/21 08:38:31;;;;;;;;;;;;;;;4.36;42.00;100325.53;5027418;28;19921;-86
2021/12/21 08:40:58;;;;;;;;;;;;;;;4.34;41.70;100326.31;5027456;28;19971;-87
2021/12/21 08:43:25;;;;;;;;;;;;;;;4.46;41.04;100334.41;5026537;28;20826;-86
2021/12/21 08:45:52;;;;;;;;;;;;;;;4.32;40.61;100333.25;5028052;28;19909;-87
2021/12/21 08:48:17;;;;;;;;;;;;;;;4.39;41.04;100335.16;5027481;28;19948;-86
2021/12/21 08:50:43;;;;;;;;;;;;;;;4.29;40.91;100339.28;5027168;28;19960;-87
2021/12/21 08:53:08;;;;;;;;;;;;;;;4.35;40.95;100336.81;5026408;28;20295;-86
2021/12/21 08:55:34;;;;;;;;;;;;;;;4.21;41.60;100333.91;5027079;28;19924;-86
2021/12/21 08:57:59;;;;;;;;;;;;;;;4.20;40.03;100342.63;5027729;28;20307;-87
2021/12/21 09:00:25;;;;;;;;;;;;;;;4.59;40.60;100341.66;5027248;28;19919;-87
2021/12/21 09:02:50;;;;;;;;;;;;;;;4.73;40.52;100344.53;5038302;28;19916;-87
2021/12/21 09:05:19;;;;;;;;;;;;;;;4.82;39.72;100334.25;5027090;28;19913;-87
2021/12/21 09:07:45;;;;;;;;;;;;;;;4.59;40.24;100338.16;5027567;28;19991;-87
2021/12/21 09:10:11;;;;;;;;;;;;;;;4.78;39.96;100339.41;5024769;28;20016;-87
2021/12/21 09:12:37;;;;;;;;;;;;;;;4.79;40.89;100333.31;5026020;28;19939;-85
2021/12/21 09:15:03;;;;;;;;;;;;;;;4.78;40.50;100334.16;5027413;28;19917;-87
2021/12/21 09:17:29;;;;;;;;;;;;;;;4.76;39.80;100321.06;5027082;28;19916;-86
2021/12/21 09:19:55;;;;;;;;;;;;;;;4.82;40.00;100329.03;5026876;28;19923;-87
2021/12/21 09:22:20;;;;;;;;;;;;;;;4.90;39.24;100317.84;5027464;28;20369;-87
2021/12/21 09:24:46;;;;;;;;;;;;;;;4.93;39.85;100324.00;5027029;28;19917;-87
2021/12/21 09:27:12;;;;;;;;;;;;;;;5.09;40.20;100327.75;5027657;28;19917;-86
2021/12/21 09:29:38;;;;;;;;;;;;;;;5.48;40.81;100323.16;5027304;28;19920;-87
2021/12/21 09:32:04;;;;;;;;;;;;;;;5.16;39.18;100323.53;5027242;28;19939;-87
2021/12/21 09:34:29;;;;;;;;;;;;;;;4.94;39.67;100309.16;5027106;28;20391;-86
2021/12/21 09:36:54;;;;;;;;;;;;;;;5.04;40.43;100312.84;5027685;28;19916;-86
2021/12/21 09:39:20;;;;;;;;;;;;;;;5.16;39.51;100315.69;5027531;28;19917;-87
2021/12/21 09:41:45;;;;;;;;;;;;;;;5.10;39.76;100308.59;5027200;28;19924;-86
2021/12/21 09:44:11;;;;;;;;;;;;;;;5.05;39.10;100317.22;5027163;28;20398;-85
2021/12/21 09:46:36;;;;;;;;;;;;;;;5.20;40.18;100313.13;5027200;28;20366;-86
2021/12/21 09:49:02;;;;;;;;;;;;;;;4.84;39.62;100318.59;5025466;28;19951;-85
2021/12/21 09:51:27;;;;;;;;;;;;;;;4.94;40.19;100314.41;5026420;28;19917;-85
2021/12/21 09:53:55;;;;;;;;;;;;;;;4.87;39.71;100309.94;5027236;28;20307;-86
2021/12/21 09:56:20;;;;;;;;;;;;;;;5.02;40.39;100308.47;5026292;28;19978;-85
2021/12/21 09:58:46;;;;;;;;;;;;;;;4.96;39.05;100310.97;5026872;28;20803;-85
2021/12/21 10:01:11;;;;;;;;;;;;;;;5.17;39.91;100307.84;5026774;28;19917;-85
2021/12/21 10:03:37;;;;;;;;;;;;;;;5.04;39.68;100312.84;5026922;28;20414;-86
2021/12/21 10:06:04;;;;;;;;;;;;;;;5.14;40.67;100309.50;5030119;28;20418;-85
2021/12/21 10:08:31;;;;;;;;;;;;;;;5.24;40.38;100300.97;5030620;28;19913;-85
2021/12/21 10:10:56;;;;;;;;;;;;;;;5.18;39.63;100298.25;5030549;28;19982;-85
2021/12/21 10:13:23;;;;;;;;;;;;;;;5.12;39.61;100301.66;5030044;28;19921;-85
2021/12/21 10:15:50;;;;;;;;;;;;;;;5.29;39.76;100294.06;5030746;28;19917;-86
2021/12/21 10:18:26;;;;;;;;;;;;;;;5.33;39.58;100301.13;5030287;28;19913;-86
2021/12/21 10:20:52;;;;;;;;;;;;;;;5.25;39.79;100297.53;5030670;28;19924;-85
2021/12/21 10:23:23;;;;;;;;;;;;;;;5.33;38.44;100289.75;5030732;28;19917;-88
2021/12/21 10:25:49;;;;;;;;;;;;;;;5.84;39.39;100311.47;5030938;28;19956;-87
2021/12/21 10:28:25;;;;;;;;;;;;;;;5.47;38.27;100298.72;5030308;28;19916;-84
2021/12/21 10:30:52;;;;;;;;;;;;;;;5.60;38.21;100305.03;5030687;28;19917;-86
2021/12/21 10:33:18;;;;;;;;;;;;;;;5.64;37.91;100298.97;5030672;28;19917;-87
2021/12/21 10:35:43;;;;;;;;;;;;;;;5.64;37.98;100303.31;5030304;28;19920;-86
2021/12/21 10:38:08;;;;;;;;;;;;;;;5.93;37.90;100308.97;5030146;28;19970;-85
2021/12/21 10:40:34;;;;;;;;;;;;;;;5.53;36.85;100306.66;5030459;28;20394;-86
2021/12/21 10:43:04;;;;;;;;;;;;;;;5.49;37.88;100299.63;5029941;28;20022;-85
2021/12/21 10:45:33;;;;;;;;;;;;;;;5.75;38.11;100299.13;5030603;28;19921;-84
2021/12/21 10:47:59;;;;;;;;;;;;;;;5.64;37.41;100285.91;5030598;28;20371;-85
2021/12/21 10:50:24;;;;;;;;;;;;;;;5.84;38.12;100291.41;5030001;28;19924;-85
2021/12/21 10:52:52;;;;;;;;;;;;;;;5.91;37.71;100282.75;5030162;28;19917;-87
2021/12/21 10:55:23;;;;;;;;;;;;;;;5.90;37.55;100301.06;5029856;28;19917;-87
2021/12/21 10:57:59;;;;;;;;;;;;;;;5.82;38.67;100293.09;5028437;28;19921;-86
2021/12/21 11:00:24;;;;;;;;;;;;;;;5.76;37.28;100295.63;5029637;28;19917;-84
2021/12/21 11:02:53;;;;;;;;;;;;;;;5.62;37.25;100299.81;5029820;28;19924;-87
2021/12/21 11:05:20;;;;;;;;;;;;;;;5.72;38.03;100280.78;5029814;28;19913;-88
2021/12/21 11:10:30;;;;;;;;;;;;;;;5.59;38.72;100289.28;5030040;28;20422;-86
2021/12/21 11:13:00;;;;;;;;;;;;;;;5.61;37.41;100290.19;5029365;28;19920;-85
2021/12/21 11:15:29;;;;;;;;;;;;;;;5.76;36.85;100292.16;5029793;28;19913;-86
2021/12/21 11:18:04;;;;;;;;;;;;;;;5.85;37.46;100281.81;5029227;28;19948;-87
2021/12/21 11:20:30;;;;;;;;;;;;;;;5.70;36.72;100280.75;5028098;28;20391;-85
2021/12/21 11:22:56;;;;;;;;;;;;;;;5.68;36.44;100284.19;5028475;28;19964;-86
2021/12/21 11:25:21;;;;;;;;;;;;;;;6.16;38.06;100283.09;5029245;28;20015;-86
2021/12/21 11:27:47;;;;;;;;;;;;;;;6.02;36.75;100289.91;5029066;28;19917;-85
2021/12/21 11:30:15;;;;;;;;;;;;;;;5.92;36.60;100289.75;5028572;28;19924;-84
2021/12/21 11:32:43;;;;;;;;;;;;;;;5.87;36.17;100286.22;5029435;28;19919;-84
2021/12/21 11:37:36;;;;;;;;;;;;;;;6.08;36.50;100282.16;5043307;28;20023;-84
2021/12/21 11:40:02;;;;;;;;;;;;;;;5.96;35.48;100274.09;5048235;28;20469;-83
2021/12/21 11:42:34;;;;;;;;;;;;;;;6.17;35.63;100279.63;5049099;28;19913;-82
2021/12/21 11:45:13;;;;;;;;;;;;;;;6.21;35.54;100264.81;5048762;28;19917;-82
2021/12/21 11:47:50;;;;;;;;;;;;;;;6.34;35.35;100264.13;5049032;28;19912;-83
2021/12/21 11:50:16;;;;;;;;;;;;;;;6.51;35.54;100266.91;5049000;28;19974;-83
2021/12/21 11:52:45;;;;;;;;;;;;;;;6.30;35.54;100264.94;5029078;28;19920;-84
2021/12/21 11:55:11;;;;;;;;;;;;;;;6.05;36.20;100258.53;5028654;28;19983;-82
2021/12/21 11:57:37;;;;;;;;;;;;;;;6.17;34.93;100256.06;5028543;28;19956;-83
2021/12/21 12:00:22;;;;;;;;;;;;;;;6.07;35.00;100262.03;5028190;28;19917;-83
2021/12/21 12:02:48;;;;;;;;;;;;;;;5.97;35.49;100274.16;5029199;28;19917;-84
2021/12/21 12:05:17;;;;;;;;;;;;;;;5.89;35.68;100255.69;5028549;28;19919;-81
2021/12/21 12:07:43;;;;;;;;;;;;;;;5.86;35.24;100270.47;5028633;28;19913;-84
2021/12/21 12:10:10;;;;;;;;;;;;;;;6.13;35.69;100267.34;5028430;28;19951;-81
2021/12/21 12:12:35;;;;;;;;;;;;;;;5.90;36.48;100273.16;5028725;28;19913;-84
2021/12/21 12:15:02;;;;;;;;;;;;;;;5.64;36.05;100274.53;5039956;28;20042;-82
2021/12/21 12:17:30;;;;;;;;;;;;;;;5.70;37.20;100272.00;5026827;28;20007;-84
2021/12/21 12:20:05;;;;;;;;;;;;;;;5.41;36.54;100288.16;5028498;28;20016;-84
2021/12/21 12:22:41;;;;;;;;;;;;;;;5.48;37.43;100284.75;5028171;28;19927;-81
2021/12/21 12:25:08;;;;;;;;;;;;;;;5.24;38.02;100281.81;5037039;28;19947;-83
2021/12/21 12:27:41;;;;;;;;;;;;;;;5.00;37.55;100293.59;5047721;28;19913;-83
2021/12/21 12:30:12;;;;;;;;;;;;;;;5.03;37.63;100293.66;5048378;28;19968;-84
2021/12/21 12:32:38;;;;;;;;;;;;;;;5.15;37.94;100296.47;5048239;28;20310;-82
2021/12/21 12:35:14;;;;;;;;;;;;;;;5.29;38.77;100298.44;5048214;28;19917;-83
2021/12/21 12:37:58;;;;;;;;;;;;;;;5.50;38.17;100306.63;5047944;28;20015;-82
2021/12/21 12:40:26;;;;;;;;;;;;;;;5.46;37.80;100302.19;5048181;28;19920;-83
2021/12/21 12:43:01;;;;;;;;;;;;;;;5.35;38.22;100301.16;5048251;28;19917;-83
2021/12/21 12:45:34;;;;;;;;;;;;;;;5.77;39.20;100322.72;5046929;28;20363;-82
2021/12/21 12:48:01;;;;;;;;;;;;;;;5.50;39.21;100314.47;5048238;28;20367;-83
2021/12/21 12:50:31;;;;;;;;;;;;;;;5.66;39.79;100318.19;5048249;28;19920;-83
2021/12/21 12:52:57;;;;;;;;;;;;;;;5.43;39.16;100322.22;5047827;28;19928;-84
2021/12/21 12:55:25;;;;;;;;;;;;;;;5.05;39.20;100319.81;5047871;28;20387;-83
2021/12/21 12:57:50;;;;;;;;;;;;;;;5.07;39.76;100316.38;5047793;28;19920;-82
2021/12/21 13:00:17;;;;;;;;;;;;;;;5.02;40.43;100318.91;5045420;28;20800;-83
2021/12/21 13:02:56;;;;;;;;;;;;;;;4.70;40.67;100323.56;5047652;28;19939;-82
2021/12/21 13:05:32;;;;;;;;;;;;;;;4.74;41.03;100328.00;5046777;28;19920;-83
2021/12/21 13:08:12;;;;;;;;;;;;;;;4.63;41.40;100321.69;5045209;28;19917;-83
2021/12/21 13:10:46;;;;;;;;;;;;;;;4.62;41.77;100327.78;5027724;28;19923;-84
2021/12/21 13:13:12;;;;;;;;;;;;;;;4.68;41.77;100329.59;5027230;28;19939;-84
2021/12/21 13:15:41;;;;;;;;;;;;;;;4.85;41.92;100330.81;5026828;28;20438;-84
2021/12/21 13:18:08;;;;;;;;;;;;;;;4.72;41.98;100331.44;5027620;28;19920;-84
2021/12/21 13:20:34;;;;;;;;;;;;;;;4.66;42.04;100322.63;5026939;28;20482;-83
2021/12/21 13:23:09;;;;;;;;;;;;;;;4.66;41.81;100334.81;5027479;28;19967;-84
2021/12/21 13:25:34;;;;;;;;;;;;;;;4.54;40.79;100339.78;5025468;28;20084;-85
2021/12/21 13:28:12;;;;;;;;;;;;;;;4.55;41.46;100331.97;5027511;28;19913;-83
2021/12/21 13:30:44;;;;;;;;;;;;;;;4.49;41.21;100337.09;5027541;28;19919;-83
2021/12/21 13:33:10;;;;;;;;;;;;;;;4.41;41.83;100342.16;5027590;28;19923;-84
2021/12/21 13:35:41;;;;;;;;;;;;;;;4.42;42.04;100345.66;5027659;28;19916;-83
2021/12/21 13:38:13;;;;;;;;;;;;;;;4.31;42.74;100348.06;5027115;28;20015;-83
2021/12/21 13:40:38;;;;;;;;;;;;;;;4.28;43.58;100348.88;5025082;28;19921;-83
2021/12/21 13:43:10;;;;;;;;;;;;;;;4.34;43.76;100348.13;5025297;28;19917;-83
2021/12/21 13:45:35;;;;;;;;;;;;;;;4.20;44.25;100353.06;5027265;28;20467;-84
2021/12/21 13:48:02;;;;;;;;;;;;;;;4.11;44.44;100360.69;5027319;28;20003;-83
2021/12/21 13:50:27;;;;;;;;;;;;;;;4.19;44.15;100364.34;5026967;28;20020;-85
2021/12/21 13:52:52;;;;;;;;;;;;;;;4.14;43.07;100366.00;5027325;28;20016;-84
2021/12/21 13:55:24;;;;;;;;;;;;;;;4.18;43.79;100366.91;5044205;28;19974;-84